sensor_id;sensor_type;location;lat;lon;timestamp;pressure;altitude;pressure_sealevel;temperature;humidity
7441;BME280;29616;51.950;8.572;2023-05-20T00:00:13;100817.22;;;13.79;100.00
7441;BME280;29616;51.950;8.572;2023-05-20T00:02:43;100835.72;;;13.95;100.00
7441;BME280;29616;51.950;8.572;2023-05-20T00:05:13;100835.72;;;13.95;100.00
7441;BME280;29616;51.950;8.572;2023-05-20T00:07:43;100835.91;;;13.93;100.00
7441;BME280;29616;51.950;8.572;2023-05-20T00:10:13;100824.44;;;13.98;100.00
7441;BME280;29616;51.950;8.572;2023-05-20T00:12:45;100823.03;;;13.94;100.00
7441;BME280;29616;51.950;8.572;2023-05-20T00:15:14;100807.25;;;13.78;100.00
7441;BME280;29616;51.950;8.572;2023-05-20T00:17:42;100824.13;;;14.01;100.00
7441;BME280;29616;51.950;8.572;2023-05-20T00:20:11;100834.34;;;13.91;100.00
7441;BME280;29616;51.950;8.572;2023-05-20T00:22:40;100831.34;;;14.02;100.00
7441;BME280;29616;51.950;8.572;2023-05-20T00:25:09;100830.50;;;14.02;100.00
7441;BME280;29616;51.950;8.572;2023-05-20T00:27:40;100816.09;;;13.90;100.00
7441;BME280;29616;51.950;8.572;2023-05-20T00:30:11;100834.03;;;13.94;100.00
7441;BME280;29616;51.950;8.572;2023-05-20T00:32:40;100829.38;;;13.94;100.00
7441;BME280;29616;51.950;8.572;2023-05-20T00:35:11;100833.06;;;13.85;100.00
7441;BME280;29616;51.950;8.572;2023-05-20T00:37:42;100828.38;;;13.78;100.00
7441;BME280;29616;51.950;8.572;2023-05-20T00:40:14;100832.72;;;13.71;100.00
7441;BME280;29616;51.950;8.572;2023-05-20T00:42:42;100823.22;;;13.65;100.00
7441;BME280;29616;51.950;8.572;2023-05-20T00:45:12;100831.63;;;13.64;100.00
7441;BME280;29616;51.950;8.572;2023-05-20T00:47:42;100836.47;;;13.52;100.00
7441;BME280;29616;51.950;8.572;2023-05-20T00:50:12;100826.91;;;13.39;100.00
7441;BME280;29616;51.950;8.572;2023-05-20T00:52:42;100834.66;;;13.43;100.00
7441;BME280;29616;51.950;8.572;2023-05-20T00:55:12;100834.88;;;13.32;100.00
7441;BME280;29616;51.950;8.572;2023-05-20T00:57:42;100837.22;;;13.27;100.00
7441;BME280;29616;51.950;8.572;2023-05-20T01:00:14;100836.50;;;13.25;100.00
7441;BME280;29616;51.950;8.572;2023-05-20T01:02:43;100837.13;;;13.19;100.00
7441;BME280;29616;51.950;8.572;2023-05-20T01:05:12;100830.75;;;13.18;100.00
7441;BME280;29616;51.950;8.572;2023-05-20T01:07:43;100835.25;;;13.10;100.00
7441;BME280;29616;51.950;8.572;2023-05-20T01:10:15;100823.28;;;13.11;100.00
7441;BME280;29616;51.950;8.572;2023-05-20T01:12:49;100827.19;;;13.08;100.00
7441;BME280;29616;51.950;8.572;2023-05-20T01:15:24;100810.59;;;13.00;100.00
7441;BME280;29616;51.950;8.572;2023-05-20T01:17:58;100820.56;;;13.01;100.00
7441;BME280;29616;51.950;8.572;2023-05-20T01:20:29;100818.81;;;13.00;100.00
7441;BME280;29616;51.950;8.572;2023-05-20T01:23:00;100811.91;;;12.96;100.00
7441;BME280;29616;51.950;8.572;2023-05-20T01:25:29;100812.34;;;12.92;100.00
7441;BME280;29616;51.950;8.572;2023-05-20T01:27:58;100811.25;;;12.85;100.00
7441;BME280;29616;51.950;8.572;2023-05-20T01:30:32;100813.41;;;12.81;100.00
7441;BME280;29616;51.950;8.572;2023-05-20T01:33:10;100808.09;;;12.70;100.00
7441;BME280;29616;51.950;8.572;2023-05-20T01:35:40;100797.47;;;12.57;100.00
7441;BME280;29616;51.950;8.572;2023-05-20T01:38:15;100802.66;;;12.60;100.00
7441;BME280;29616;51.950;8.572;2023-05-20T01:40:47;100807.41;;;12.68;100.00
7441;BME280;29616;51.950;8.572;2023-05-20T01:43:17;100807.97;;;12.62;100.00
7441;BME280;29616;51.950;8.572;2023-05-20T01:45:45;100809.84;;;12.71;100.00
7441;BME280;29616;51.950;8.572;2023-05-20T01:48:15;100802.38;;;12.63;100.00
7441;BME280;29616;51.950;8.572;2023-05-20T01:50:46;100772.97;;;12.56;100.00
7441;BME280;29616;51.950;8.572;2023-05-20T01:53:17;100800.34;;;12.65;100.00
7441;BME280;29616;51.950;8.572;2023-05-20T01:55:46;100790.69;;;12.52;100.00
7441;BME280;29616;51.950;8.572;2023-05-20T01:58:14;100767.41;;;12.29;100.00
7441;BME280;29616;51.950;8.572;2023-05-20T02:00:50;100791.56;;;12.43;100.00
7441;BME280;29616;51.950;8.572;2023-05-20T02:03:19;100786.72;;;12.37;100.00
7441;BME280;29616;51.950;8.572;2023-05-20T02:05:49;100796.22;;;12.33;100.00
7441;BME280;29616;51.950;8.572;2023-05-20T02:08:22;100789.31;;;12.29;100.00
7441;BME280;29616;51.950;8.572;2023-05-20T02:10:53;100788.75;;;12.25;100.00
7441;BME280;29616;51.950;8.572;2023-05-20T02:13:22;100793.34;;;12.25;100.00
7441;BME280;29616;51.950;8.572;2023-05-20T02:15:50;100787.44;;;12.20;100.00
7441;BME280;29616;51.950;8.572;2023-05-20T02:18:20;100798.72;;;12.16;100.00
7441;BME280;29616;51.950;8.572;2023-05-20T02:20:49;100797.88;;;12.16;100.00
7441;BME280;29616;51.950;8.572;2023-05-20T02:23:21;100794.69;;;12.21;100.00
7441;BME280;29616;51.950;8.572;2023-05-20T02:25:50;100798.00;;;12.14;100.00
7441;BME280;29616;51.950;8.572;2023-05-20T02:28:18;100777.69;;;12.07;100.00
7441;BME280;29616;51.950;8.572;2023-05-20T02:30:47;100787.59;;;12.08;100.00
7441;BME280;29616;51.950;8.572;2023-05-20T02:33:19;100763.00;;;11.89;100.00
7441;BME280;29616;51.950;8.572;2023-05-20T02:35:48;100787.50;;;11.91;100.00
7441;BME280;29616;51.950;8.572;2023-05-20T02:38:21;100788.38;;;11.91;100.00
7441;BME280;29616;51.950;8.572;2023-05-20T02:40:50;100769.34;;;11.71;100.00
7441;BME280;29616;51.950;8.572;2023-05-20T02:43:20;100782.44;;;11.77;100.00
7441;BME280;29616;51.950;8.572;2023-05-20T02:45:50;100763.97;;;11.60;100.00
7441;BME280;29616;51.950;8.572;2023-05-20T02:48:19;100778.56;;;11.70;100.00
7441;BME280;29616;51.950;8.572;2023-05-20T02:50:48;100785.06;;;11.78;100.00
7441;BME280;29616;51.950;8.572;2023-05-20T02:53:17;100780.16;;;11.72;100.00
7441;BME280;29616;51.950;8.572;2023-05-20T02:55:49;100766.13;;;11.56;100.00
7441;BME280;29616;51.950;8.572;2023-05-20T02:58:18;100779.97;;;11.54;100.00
7441;BME280;29616;51.950;8.572;2023-05-20T03:00:54;100782.97;;;11.42;100.00
7441;BME280;29616;51.950;8.572;2023-05-20T03:03:25;100769.56;;;11.29;100.00
7441;BME280;29616;51.950;8.572;2023-05-20T03:05:56;100766.97;;;11.37;100.00
7441;BME280;29616;51.950;8.572;2023-05-20T03:08:26;100764.13;;;11.39;100.00
7441;BME280;29616;51.950;8.572;2023-05-20T03:10:57;100771.59;;;11.46;100.00
7441;BME280;29616;51.950;8.572;2023-05-20T03:13:27;100762.53;;;11.46;100.00
7441;BME280;29616;51.950;8.572;2023-05-20T03:15:57;100762.81;;;11.43;100.00
7441;BME280;29616;51.950;8.572;2023-05-20T03:18:27;100765.81;;;11.40;100.00
7441;BME280;29616;51.950;8.572;2023-05-20T03:20:56;100762.09;;;11.41;100.00
7441;BME280;29616;51.950;8.572;2023-05-20T03:23:25;100781.97;;;11.52;100.00
7441;BME280;29616;51.950;8.572;2023-05-20T03:25:56;100770.16;;;11.62;100.00
7441;BME280;29616;51.950;8.572;2023-05-20T03:28:27;100773.63;;;11.64;100.00
7441;BME280;29616;51.950;8.572;2023-05-20T03:30:57;100754.59;;;11.43;100.00
7441;BME280;29616;51.950;8.572;2023-05-20T03:33:29;100778.81;;;11.57;100.00
7441;BME280;29616;51.950;8.572;2023-05-20T03:36:00;100788.31;;;11.53;100.00
7441;BME280;29616;51.950;8.572;2023-05-20T03:38:29;100768.13;;;11.35;100.00
7441;BME280;29616;51.950;8.572;2023-05-20T03:41:01;100792.63;;;11.46;100.00
7441;BME280;29616;51.950;8.572;2023-05-20T03:43:32;100780.66;;;11.37;100.00
7441;BME280;29616;51.950;8.572;2023-05-20T03:46:02;100794.06;;;11.40;100.00
7441;BME280;29616;51.950;8.572;2023-05-20T03:48:32;100759.16;;;11.23;100.00
7441;BME280;29616;51.950;8.572;2023-05-20T03:51:04;100784.81;;;11.32;100.00
7441;BME280;29616;51.950;8.572;2023-05-20T03:53:33;100776.16;;;11.17;100.00
7441;BME280;29616;51.950;8.572;2023-05-20T03:56:04;100786.69;;;11.22;100.00
7441;BME280;29616;51.950;8.572;2023-05-20T03:58:34;100787.56;;;11.32;100.00
7441;BME280;29616;51.950;8.572;2023-05-20T04:01:05;100783.94;;;11.31;100.00
7441;BME280;29616;51.950;8.572;2023-05-20T04:03:35;100781.53;;;11.28;100.00
7441;BME280;29616;51.950;8.572;2023-05-20T04:06:06;100772.44;;;11.28;100.00
7441;BME280;29616;51.950;8.572;2023-05-20T04:08:37;100778.06;;;11.36;100.00
7441;BME280;29616;51.950;8.572;2023-05-20T04:11:07;100772.00;;;11.32;100.00
7441;BME280;29616;51.950;8.572;2023-05-20T04:13:35;100773.00;;;11.31;100.00
7441;BME280;29616;51.950;8.572;2023-05-20T04:16:06;100766.84;;;11.39;100.00
7441;BME280;29616;51.950;8.572;2023-05-20T04:18:35;100767.25;;;11.34;100.00
7441;BME280;29616;51.950;8.572;2023-05-20T04:21:05;100776.34;;;11.44;100.00
7441;BME280;29616;51.950;8.572;2023-05-20T04:23:35;100774.47;;;11.45;100.00
7441;BME280;29616;51.950;8.572;2023-05-20T04:26:06;100777.19;;;11.45;100.00
7441;BME280;29616;51.950;8.572;2023-05-20T04:28:36;100779.06;;;11.44;100.00
7441;BME280;29616;51.950;8.572;2023-05-20T04:31:06;100773.03;;;11.50;100.00
7441;BME280;29616;51.950;8.572;2023-05-20T04:33:39;100776.06;;;11.47;100.00
7441;BME280;29616;51.950;8.572;2023-05-20T04:36:10;100761.06;;;11.42;100.00
7441;BME280;29616;51.950;8.572;2023-05-20T04:38:44;100757.88;;;11.37;100.00
7441;BME280;29616;51.950;8.572;2023-05-20T04:41:17;100779.38;;;11.51;100.00
7441;BME280;29616;51.950;8.572;2023-05-20T04:43:46;100774.19;;;11.67;100.00
7441;BME280;29616;51.950;8.572;2023-05-20T04:46:16;100779.97;;;11.64;100.00
7441;BME280;29616;51.950;8.572;2023-05-20T04:48:47;100775.41;;;11.84;100.00
7441;BME280;29616;51.950;8.572;2023-05-20T04:51:15;100779.84;;;11.85;100.00
7441;BME280;29616;51.950;8.572;2023-05-20T04:53:46;100765.88;;;11.78;100.00
7441;BME280;29616;51.950;8.572;2023-05-20T04:56:19;100775.53;;;11.92;100.00
7441;BME280;29616;51.950;8.572;2023-05-20T04:58:49;100777.41;;;11.91;100.00
7441;BME280;29616;51.950;8.572;2023-05-20T05:01:19;100772.47;;;11.95;100.00
7441;BME280;29616;51.950;8.572;2023-05-20T05:03:50;100771.03;;;12.10;100.00
7441;BME280;29616;51.950;8.572;2023-05-20T05:06:20;100778.81;;;12.14;100.00
7441;BME280;29616;51.950;8.572;2023-05-20T05:08:49;100777.06;;;12.23;100.00
7441;BME280;29616;51.950;8.572;2023-05-20T05:11:20;100766.97;;;12.24;100.00
7441;BME280;29616;51.950;8.572;2023-05-20T05:13:51;100764.78;;;12.27;100.00
7441;BME280;29616;51.950;8.572;2023-05-20T05:16:25;100763.75;;;12.38;100.00
7441;BME280;29616;51.950;8.572;2023-05-20T05:18:55;100761.75;;;12.40;100.00
7441;BME280;29616;51.950;8.572;2023-05-20T05:21:28;100758.31;;;12.28;100.00
7441;BME280;29616;51.950;8.572;2023-05-20T05:23:57;100757.44;;;12.28;100.00
7441;BME280;29616;51.950;8.572;2023-05-20T05:26:27;100748.78;;;12.23;100.00
7441;BME280;29616;51.950;8.572;2023-05-20T05:28:56;100746.88;;;12.33;100.00
7441;BME280;29616;51.950;8.572;2023-05-20T05:31:26;100764.00;;;12.54;100.00
7441;BME280;29616;51.950;8.572;2023-05-20T05:33:57;100759.78;;;12.69;100.00
7441;BME280;29616;51.950;8.572;2023-05-20T05:36:27;100765.97;;;12.71;100.00
7441;BME280;29616;51.950;8.572;2023-05-20T05:38:57;100773.72;;;12.85;100.00
7441;BME280;29616;51.950;8.572;2023-05-20T05:41:27;100765.59;;;12.93;100.00
7441;BME280;29616;51.950;8.572;2023-05-20T05:43:58;100741.59;;;12.95;100.00
7441;BME280;29616;51.950;8.572;2023-05-20T05:46:29;100759.69;;;13.15;100.00
7441;BME280;29616;51.950;8.572;2023-05-20T05:48:59;100747.88;;;13.05;100.00
7441;BME280;29616;51.950;8.572;2023-05-20T05:51:27;100753.34;;;13.15;100.00
7441;BME280;29616;51.950;8.572;2023-05-20T05:53:58;100750.47;;;13.16;100.00
7441;BME280;29616;51.950;8.572;2023-05-20T05:56:29;100764.47;;;13.41;100.00
7441;BME280;29616;51.950;8.572;2023-05-20T05:58:59;100746.63;;;13.27;100.00
7441;BME280;29616;51.950;8.572;2023-05-20T06:01:29;100756.75;;;13.26;100.00
7441;BME280;29616;51.950;8.572;2023-05-20T06:03:58;100735.38;;;13.20;100.00
7441;BME280;29616;51.950;8.572;2023-05-20T06:06:31;100756.44;;;13.47;100.00
7441;BME280;29616;51.950;8.572;2023-05-20T06:09:00;100719.75;;;13.30;100.00
7441;BME280;29616;51.950;8.572;2023-05-20T06:11:31;100743.50;;;13.57;100.00
7441;BME280;29616;51.950;8.572;2023-05-20T06:14:01;100747.56;;;13.71;100.00
7441;BME280;29616;51.950;8.572;2023-05-20T06:16:30;100746.47;;;13.81;100.00
7441;BME280;29616;51.950;8.572;2023-05-20T06:18:59;100739.41;;;13.96;100.00
7441;BME280;29616;51.950;8.572;2023-05-20T06:21:31;100742.66;;;14.18;100.00
7441;BME280;29616;51.950;8.572;2023-05-20T06:24:01;100730.69;;;14.27;100.00
7441;BME280;29616;51.950;8.572;2023-05-20T06:26:37;100745.97;;;14.73;100.00
7441;BME280;29616;51.950;8.572;2023-05-20T06:29:07;100743.72;;;15.10;100.00
7441;BME280;29616;51.950;8.572;2023-05-20T06:31:37;100744.13;;;15.31;100.00
7441;BME280;29616;51.950;8.572;2023-05-20T06:34:07;100754.59;;;15.77;100.00
7441;BME280;29616;51.950;8.572;2023-05-20T06:36:35;100750.47;;;15.90;100.00
7441;BME280;29616;51.950;8.572;2023-05-20T06:39:05;100727.72;;;16.12;100.00
7441;BME280;29616;51.950;8.572;2023-05-20T06:41:41;100740.28;;;16.38;100.00
7441;BME280;29616;51.950;8.572;2023-05-20T06:44:14;100730.25;;;16.46;100.00
7441;BME280;29616;51.950;8.572;2023-05-20T06:46:56;100743.72;;;16.57;100.00
7441;BME280;29616;51.950;8.572;2023-05-20T06:49:26;100737.13;;;17.13;100.00
7441;BME280;29616;51.950;8.572;2023-05-20T06:51:55;100739.53;;;18.00;100.00
7441;BME280;29616;51.950;8.572;2023-05-20T06:54:26;100732.25;;;18.73;100.00
7441;BME280;29616;51.950;8.572;2023-05-20T06:56:58;100709.06;;;18.89;100.00
7441;BME280;29616;51.950;8.572;2023-05-20T06:59:31;100727.38;;;18.90;100.00
7441;BME280;29616;51.950;8.572;2023-05-20T07:02:02;100698.16;;;18.88;100.00
7441;BME280;29616;51.950;8.572;2023-05-20T07:04:32;100731.31;;;19.61;100.00
7441;BME280;29616;51.950;8.572;2023-05-20T07:07:03;100733.69;;;19.43;100.00
7441;BME280;29616;51.950;8.572;2023-05-20T07:09:34;100745.53;;;18.78;100.00
7441;BME280;29616;51.950;8.572;2023-05-20T07:12:07;100724.91;;;18.29;100.00
7441;BME280;29616;51.950;8.572;2023-05-20T07:14:35;100710.91;;;19.32;100.00
7441;BME280;29616;51.950;8.572;2023-05-20T07:17:06;100735.28;;;21.33;100.00
7441;BME280;29616;51.950;8.572;2023-05-20T07:19:38;100720.44;;;21.73;100.00
7441;BME280;29616;51.950;8.572;2023-05-20T07:22:08;100699.88;;;21.67;100.00
7441;BME280;29616;51.950;8.572;2023-05-20T07:24:50;100723.38;;;21.58;100.00
7441;BME280;29616;51.950;8.572;2023-05-20T07:27:21;100735.59;;;20.48;100.00
7441;BME280;29616;51.950;8.572;2023-05-20T07:29:50;100733.41;;;19.59;100.00
7441;BME280;29616;51.950;8.572;2023-05-20T07:32:19;100723.13;;;18.73;100.00
7441;BME280;29616;51.950;8.572;2023-05-20T07:34:49;100734.97;;;18.44;100.00
7441;BME280;29616;51.950;8.572;2023-05-20T07:37:18;100744.47;;;18.79;100.00
7441;BME280;29616;51.950;8.572;2023-05-20T07:39:46;100728.25;;;18.61;100.00
7441;BME280;29616;51.950;8.572;2023-05-20T07:42:15;100723.31;;;19.36;100.00
7441;BME280;29616;51.950;8.572;2023-05-20T07:44:50;100719.13;;;19.76;100.00
7441;BME280;29616;51.950;8.572;2023-05-20T07:47:18;100722.94;;;19.75;100.00
7441;BME280;29616;51.950;8.572;2023-05-20T07:49:47;100679.88;;;19.22;100.00
7441;BME280;29616;51.950;8.572;2023-05-20T07:52:16;100706.28;;;19.54;100.00
7441;BME280;29616;51.950;8.572;2023-05-20T07:54:46;100711.09;;;19.88;100.00
7441;BME280;29616;51.950;8.572;2023-05-20T07:57:16;100706.97;;;19.99;100.00
7441;BME280;29616;51.950;8.572;2023-05-20T07:59:48;100713.19;;;19.79;100.00
7441;BME280;29616;51.950;8.572;2023-05-20T08:02:19;100707.91;;;19.49;100.00
7441;BME280;29616;51.950;8.572;2023-05-20T08:04:49;100710.78;;;19.55;100.00
7441;BME280;29616;51.950;8.572;2023-05-20T08:07:20;100702.88;;;19.94;100.00
7441;BME280;29616;51.950;8.572;2023-05-20T08:09:53;100710.31;;;20.15;100.00
7441;BME280;29616;51.950;8.572;2023-05-20T08:12:25;100696.19;;;19.68;100.00
7441;BME280;29616;51.950;8.572;2023-05-20T08:14:55;100716.75;;;19.38;100.00
7441;BME280;29616;51.950;8.572;2023-05-20T08:17:26;100692.84;;;19.36;100.00
7441;BME280;29616;51.950;8.572;2023-05-20T08:19:56;100716.41;;;19.83;100.00
7441;BME280;29616;51.950;8.572;2023-05-20T08:22:26;100696.72;;;19.57;100.00
7441;BME280;29616;51.950;8.572;2023-05-20T08:24:55;100710.44;;;19.44;100.00
7441;BME280;29616;51.950;8.572;2023-05-20T08:27:25;100703.59;;;19.61;100.00
7441;BME280;29616;51.950;8.572;2023-05-20T08:29:57;100708.41;;;20.16;100.00
7441;BME280;29616;51.950;8.572;2023-05-20T08:32:27;100691.50;;;20.11;100.00
7441;BME280;29616;51.950;8.572;2023-05-20T08:34:57;100698.63;;;20.75;100.00
7441;BME280;29616;51.950;8.572;2023-05-20T08:37:28;100698.28;;;21.32;100.00
7441;BME280;29616;51.950;8.572;2023-05-20T08:39:59;100704.25;;;21.29;100.00
7441;BME280;29616;51.950;8.572;2023-05-20T08:42:27;100696.97;;;21.22;100.00
7441;BME280;29616;51.950;8.572;2023-05-20T08:45:00;100691.63;;;21.27;100.00
7441;BME280;29616;51.950;8.572;2023-05-20T08:47:30;100684.91;;;21.62;100.00
7441;BME280;29616;51.950;8.572;2023-05-20T08:50:00;100686.44;;;21.10;100.00
7441;BME280;29616;51.950;8.572;2023-05-20T08:52:32;100686.84;;;21.68;100.00
7441;BME280;29616;51.950;8.572;2023-05-20T08:55:07;100676.38;;;21.77;100.00
7441;BME280;29616;51.950;8.572;2023-05-20T08:57:39;100686.06;;;22.00;100.00
7441;BME280;29616;51.950;8.572;2023-05-20T09:00:17;100696.00;;;21.42;100.00
7441;BME280;29616;51.950;8.572;2023-05-20T09:02:48;100692.50;;;21.27;100.00
7441;BME280;29616;51.950;8.572;2023-05-20T09:05:20;100684.66;;;21.50;100.00
7441;BME280;29616;51.950;8.572;2023-05-20T09:07:51;100686.22;;;21.66;100.00
7441;BME280;29616;51.950;8.572;2023-05-20T09:10:22;100698.88;;;20.87;100.00
7441;BME280;29616;51.950;8.572;2023-05-20T09:12:51;100695.91;;;21.23;100.00
7441;BME280;29616;51.950;8.572;2023-05-20T09:15:23;100702.41;;;21.49;100.00
7441;BME280;29616;51.950;8.572;2023-05-20T09:17:54;100690.50;;;21.82;100.00
7441;BME280;29616;51.950;8.572;2023-05-20T09:20:24;100688.31;;;23.02;97.18
7441;BME280;29616;51.950;8.572;2023-05-20T09:22:59;100686.78;;;23.63;88.90
7441;BME280;29616;51.950;8.572;2023-05-20T09:25:29;100681.56;;;23.73;87.14
7441;BME280;29616;51.950;8.572;2023-05-20T09:28:00;100664.31;;;23.01;91.81
7441;BME280;29616;51.950;8.572;2023-05-20T09:30:33;100678.13;;;22.17;100.00
7441;BME280;29616;51.950;8.572;2023-05-20T09:33:04;100683.78;;;21.43;100.00
7441;BME280;29616;51.950;8.572;2023-05-20T09:35:35;100680.59;;;21.46;100.00
7441;BME280;29616;51.950;8.572;2023-05-20T09:38:06;100660.97;;;22.72;95.06
7441;BME280;29616;51.950;8.572;2023-05-20T09:40:38;100671.47;;;22.57;91.18
7441;BME280;29616;51.950;8.572;2023-05-20T09:43:10;100667.09;;;22.94;93.34
7441;BME280;29616;51.950;8.572;2023-05-20T09:45:42;100664.63;;;22.33;91.14
7441;BME280;29616;51.950;8.572;2023-05-20T09:48:12;100672.16;;;22.00;95.11
7441;BME280;29616;51.950;8.572;2023-05-20T09:50:44;100649.25;;;22.24;92.34
7441;BME280;29616;51.950;8.572;2023-05-20T09:53:17;100668.09;;;22.03;95.78
7441;BME280;29616;51.950;8.572;2023-05-20T09:55:47;100671.28;;;22.26;96.61
7441;BME280;29616;51.950;8.572;2023-05-20T09:58:17;100658.81;;;21.69;99.37
7441;BME280;29616;51.950;8.572;2023-05-20T10:00:49;100678.97;;;21.85;99.15
7441;BME280;29616;51.950;8.572;2023-05-20T10:03:21;100663.69;;;22.92;95.13
7441;BME280;29616;51.950;8.572;2023-05-20T10:06:13;100660.94;;;24.05;84.81
7441;BME280;29616;51.950;8.572;2023-05-20T10:09:06;100643.72;;;24.76;83.05
7441;BME280;29616;51.950;8.572;2023-05-20T10:11:46;100656.19;;;24.80;77.65
7441;BME280;29616;51.950;8.572;2023-05-20T10:14:32;100669.13;;;25.77;75.23
7441;BME280;29616;51.950;8.572;2023-05-20T10:17:11;100647.63;;;25.11;73.41
7441;BME280;29616;51.950;8.572;2023-05-20T10:19:42;100661.63;;;24.50;74.64
7441;BME280;29616;51.950;8.572;2023-05-20T10:22:12;100665.78;;;23.85;78.64
7441;BME280;29616;51.950;8.572;2023-05-20T10:24:43;100677.47;;;22.54;87.20
7441;BME280;29616;51.950;8.572;2023-05-20T10:27:13;100658.88;;;21.96;96.57
7441;BME280;29616;51.950;8.572;2023-05-20T10:29:45;100662.28;;;21.85;99.26
7441;BME280;29616;51.950;8.572;2023-05-20T10:32:26;100670.34;;;21.66;98.16
7441;BME280;29616;51.950;8.572;2023-05-20T10:34:59;100660.31;;;21.65;98.93
7441;BME280;29616;51.950;8.572;2023-05-20T10:37:40;100673.75;;;21.42;100.00
7441;BME280;29616;51.950;8.572;2023-05-20T10:40:11;100663.41;;;21.30;100.00
7441;BME280;29616;51.950;8.572;2023-05-20T10:42:41;100665.09;;;21.24;100.00
7441;BME280;29616;51.950;8.572;2023-05-20T10:45:23;100668.19;;;21.42;100.00
7441;BME280;29616;51.950;8.572;2023-05-20T10:47:57;100640.63;;;21.60;100.00
7441;BME280;29616;51.950;8.572;2023-05-20T10:50:33;100638.72;;;21.61;100.00
7441;BME280;29616;51.950;8.572;2023-05-20T10:53:05;100652.34;;;21.56;100.00
7441;BME280;29616;51.950;8.572;2023-05-20T10:55:49;100643.38;;;21.00;100.00
7441;BME280;29616;51.950;8.572;2023-05-20T10:58:21;100644.25;;;20.94;100.00
7441;BME280;29616;51.950;8.572;2023-05-20T11:00:55;100626.94;;;20.98;100.00
7441;BME280;29616;51.950;8.572;2023-05-20T11:03:25;100642.69;;;20.85;100.00
7441;BME280;29616;51.950;8.572;2023-05-20T11:05:56;100647.44;;;20.97;100.00
7441;BME280;29616;51.950;8.572;2023-05-20T11:08:28;100624.41;;;20.63;100.00
7441;BME280;29616;51.950;8.572;2023-05-20T11:10:59;100635.34;;;20.36;100.00
7441;BME280;29616;51.950;8.572;2023-05-20T11:13:30;100636.03;;;20.17;100.00
7441;BME280;29616;51.950;8.572;2023-05-20T11:16:02;100644.47;;;20.03;100.00
7441;BME280;29616;51.950;8.572;2023-05-20T11:18:34;100641.78;;;20.16;100.00
7441;BME280;29616;51.950;8.572;2023-05-20T11:21:04;100636.13;;;20.24;100.00
7441;BME280;29616;51.950;8.572;2023-05-20T11:23:35;100633.56;;;20.57;100.00
7441;BME280;29616;51.950;8.572;2023-05-20T11:26:06;100605.56;;;20.51;100.00
7441;BME280;29616;51.950;8.572;2023-05-20T11:28:37;100606.09;;;20.34;100.00
7441;BME280;29616;51.950;8.572;2023-05-20T11:31:06;100620.16;;;20.67;100.00
7441;BME280;29616;51.950;8.572;2023-05-20T11:33:40;100613.78;;;21.27;100.00
7441;BME280;29616;51.950;8.572;2023-05-20T11:36:11;100624.50;;;21.30;100.00
7441;BME280;29616;51.950;8.572;2023-05-20T11:38:56;100599.28;;;21.31;100.00
7441;BME280;29616;51.950;8.572;2023-05-20T11:41:27;100615.56;;;21.34;100.00
7441;BME280;29616;51.950;8.572;2023-05-20T11:43:57;100614.28;;;21.37;100.00
7441;BME280;29616;51.950;8.572;2023-05-20T11:46:28;100629.25;;;21.49;100.00
7441;BME280;29616;51.950;8.572;2023-05-20T11:49:00;100590.81;;;22.05;100.00
7441;BME280;29616;51.950;8.572;2023-05-20T11:51:31;100611.84;;;23.67;100.00
7441;BME280;29616;51.950;8.572;2023-05-20T11:54:01;100611.66;;;24.18;89.01
7441;BME280;29616;51.950;8.572;2023-05-20T11:56:30;100622.50;;;23.01;92.62
7441;BME280;29616;51.950;8.572;2023-05-20T11:59:00;100615.84;;;22.18;100.00
7441;BME280;29616;51.950;8.572;2023-05-20T12:01:31;100614.69;;;22.65;98.35
7441;BME280;29616;51.950;8.572;2023-05-20T12:04:06;100589.44;;;22.53;97.88
7441;BME280;29616;51.950;8.572;2023-05-20T12:06:36;100597.91;;;22.84;96.94
7441;BME280;29616;51.950;8.572;2023-05-20T12:09:08;100603.66;;;22.89;99.02
7441;BME280;29616;51.950;8.572;2023-05-20T12:11:38;100591.97;;;22.61;99.11
7441;BME280;29616;51.950;8.572;2023-05-20T12:14:09;100573.66;;;22.91;96.25
7441;BME280;29616;51.950;8.572;2023-05-20T12:16:39;100572.44;;;23.19;95.21
7441;BME280;29616;51.950;8.572;2023-05-20T12:19:11;100552.34;;;22.59;96.28
7441;BME280;29616;51.950;8.572;2023-05-20T12:21:42;100586.84;;;22.52;100.00
7441;BME280;29616;51.950;8.572;2023-05-20T12:24:14;100579.25;;;21.95;100.00
7441;BME280;29616;51.950;8.572;2023-05-20T12:26:43;100571.75;;;21.89;100.00
7441;BME280;29616;51.950;8.572;2023-05-20T12:29:14;100573.66;;;21.62;100.00
7441;BME280;29616;51.950;8.572;2023-05-20T12:31:42;100565.13;;;21.90;100.00
7441;BME280;29616;51.950;8.572;2023-05-20T12:34:13;100550.13;;;21.64;100.00
7441;BME280;29616;51.950;8.572;2023-05-20T12:36:43;100571.53;;;21.57;100.00
7441;BME280;29616;51.950;8.572;2023-05-20T12:39:15;100572.38;;;21.71;100.00
7441;BME280;29616;51.950;8.572;2023-05-20T12:41:46;100564.66;;;22.12;100.00
7441;BME280;29616;51.950;8.572;2023-05-20T12:44:15;100558.44;;;22.30;100.00
7441;BME280;29616;51.950;8.572;2023-05-20T12:46:46;100560.38;;;22.10;100.00
7441;BME280;29616;51.950;8.572;2023-05-20T12:49:17;100538.97;;;21.77;100.00
7441;BME280;29616;51.950;8.572;2023-05-20T12:51:48;100542.63;;;21.58;100.00
7441;BME280;29616;51.950;8.572;2023-05-20T12:54:18;100556.09;;;21.61;100.00
7441;BME280;29616;51.950;8.572;2023-05-20T12:56:51;100551.16;;;22.22;100.00
7441;BME280;29616;51.950;8.572;2023-05-20T12:59:21;100557.72;;;22.48;100.00
7441;BME280;29616;51.950;8.572;2023-05-20T13:01:51;100558.97;;;22.71;100.00
7441;BME280;29616;51.950;8.572;2023-05-20T13:04:21;100557.16;;;23.28;97.07
7441;BME280;29616;51.950;8.572;2023-05-20T13:06:51;100552.25;;;24.04;89.00
7441;BME280;29616;51.950;8.572;2023-05-20T13:09:20;100554.47;;;23.15;93.10